createdAt,value
2019-04-14T00:00:07.541Z,3.00
2019-04-14T00:02:43.121Z,2.70
2019-04-14T00:05:14.706Z,3.00
2019-04-14T00:07:45.552Z,3.00
2019-04-14T00:10:14.196Z,2.80
2019-04-14T00:12:42.709Z,2.90
2019-04-14T00:15:25.683Z,2.70
2019-04-14T00:17:43.471Z,2.70
2019-04-14T00:20:11.901Z,2.40
2019-04-14T00:22:40.216Z,2.70
2019-04-14T00:25:08.691Z,2.90
2019-04-14T00:27:36.772Z,2.70
2019-04-14T00:30:06.090Z,2.70
2019-04-14T00:32:37.895Z,2.80
2019-04-14T00:35:44.836Z,2.30
2019-04-14T00:38:17.535Z,2.40
2019-04-14T00:41:00.705Z,2.70
2019-04-14T00:43:48.508Z,2.30
2019-04-14T00:46:34.155Z,2.40
2019-04-14T00:49:02.879Z,2.60
2019-04-14T00:51:30.978Z,2.40
2019-04-14T00:54:01.959Z,2.40
2019-04-14T00:56:30.146Z,2.60
2019-04-14T00:58:58.275Z,2.80
2019-04-14T01:01:26.573Z,2.90
2019-04-14T01:03:54.838Z,2.60
2019-04-14T01:06:23.043Z,2.60
2019-04-14T01:08:51.240Z,2.70
2019-04-14T01:11:20.310Z,2.90
2019-04-14T01:13:48.667Z,2.40
2019-04-14T01:16:19.986Z,2.40
2019-04-14T01:18:47.305Z,2.70
2019-04-14T01:21:17.435Z,2.40
2019-04-14T01:23:45.549Z,2.60
2019-04-14T01:26:13.917Z,2.30
2019-04-14T01:28:41.954Z,2.90
2019-04-14T01:31:10.099Z,2.80
2019-04-14T01:33:37.972Z,2.90
2019-04-14T01:36:06.111Z,2.60
2019-04-14T01:38:34.380Z,2.30
2019-04-14T01:41:08.527Z,2.40
2019-04-14T01:43:36.617Z,2.50
2019-04-14T01:46:13.796Z,2.30
2019-04-14T01:48:34.619Z,2.20
2019-04-14T01:51:22.397Z,2.40
2019-04-14T01:54:25.690Z,2.60
2019-04-14T01:57:13.455Z,2.60
2019-04-14T01:59:41.691Z,2.30
2019-04-14T02:02:11.883Z,2.00
2019-04-14T02:04:40.531Z,2.10
2019-04-14T02:07:08.373Z,2.20
2019-04-14T02:09:36.381Z,2.20
2019-04-14T02:12:10.622Z,2.60
2019-04-14T02:14:38.719Z,2.00
2019-04-14T02:17:07.799Z,2.20
2019-04-14T02:19:37.163Z,2.50
2019-04-14T02:22:05.249Z,2.50
2019-04-14T02:24:33.142Z,2.60
2019-04-14T02:27:01.337Z,2.10
2019-04-14T02:29:29.746Z,2.10
2019-04-14T02:32:30.205Z,2.00
2019-04-14T02:40:08.970Z,2.20
2019-04-14T02:42:38.388Z,2.10
2019-04-14T02:44:55.379Z,2.20
2019-04-14T02:52:28.199Z,2.20
2019-04-14T02:54:59.976Z,2.10
2019-04-14T03:00:07.863Z,2.30
2019-04-14T03:02:36.901Z,2.20
2019-04-14T03:05:01.851Z,2.00
2019-04-14T03:07:36.157Z,2.10
2019-04-14T03:10:01.282Z,2.30
2019-04-14T03:12:24.450Z,2.00
2019-04-14T03:15:01.889Z,2.20
2019-04-14T03:23:12.851Z,2.10
2019-04-14T03:25:43.708Z,2.20
2019-04-14T03:34:07.511Z,1.90
2019-04-14T03:37:11.345Z,2.00
2019-04-14T03:38:50.838Z,2.30
2019-04-14T03:41:17.283Z,2.20
2019-04-14T03:43:48.253Z,1.90
2019-04-14T03:48:54.023Z,1.80
2019-04-14T03:51:18.869Z,1.80
2019-04-14T03:53:34.715Z,1.90
2019-04-14T03:56:46.868Z,1.80
2019-04-14T03:59:17.359Z,2.10
2019-04-14T04:01:45.806Z,1.80
2019-04-14T04:04:14.096Z,1.70
2019-04-14T04:06:42.270Z,1.70
2019-04-14T04:09:10.513Z,1.80
2019-04-14T04:11:39.051Z,1.90
2019-04-14T04:14:07.491Z,2.10
2019-04-14T04:16:57.203Z,2.20
2019-04-14T04:19:44.711Z,2.00
2019-04-14T04:22:32.727Z,2.10
2019-04-14T04:25:24.732Z,2.10
2019-04-14T04:28:10.952Z,2.10
2019-04-14T04:30:58.015Z,1.90
2019-04-14T04:33:45.791Z,1.90
2019-04-14T04:36:24.829Z,2.00
2019-04-14T04:38:57.389Z,1.80
2019-04-14T04:41:25.434Z,2.00
2019-04-14T04:43:53.869Z,2.30
2019-04-14T04:46:22.077Z,2.30
2019-04-14T04:49:04.465Z,1.80
2019-04-14T04:51:22.432Z,2.30
2019-04-14T04:53:52.716Z,2.10
2019-04-14T04:56:21.270Z,2.10
2019-04-14T04:58:49.985Z,2.30
2019-04-14T05:01:18.817Z,2.10
2019-04-14T05:03:47.109Z,2.10
2019-04-14T05:06:57.035Z,2.10
2019-04-14T05:09:44.809Z,2.10
2019-04-14T05:12:36.886Z,2.20
2019-04-14T05:15:38.078Z,2.00
2019-04-14T05:18:07.146Z,2.00
2019-04-14T05:20:35.615Z,2.40
2019-04-14T05:23:03.784Z,2.30
2019-04-14T05:25:31.887Z,2.50
2019-04-14T05:28:00.436Z,2.80
2019-04-14T05:30:28.621Z,2.90
2019-04-14T05:32:58.741Z,2.60
2019-04-14T05:35:27.030Z,2.70
2019-04-14T05:37:55.189Z,3.20
2019-04-14T05:40:23.453Z,3.20
2019-04-14T05:42:51.698Z,2.90
2019-04-14T05:45:19.844Z,3.00
2019-04-14T05:47:47.966Z,3.50
2019-04-14T05:50:16.009Z,3.30
2019-04-14T05:52:44.719Z,3.50
2019-04-14T05:55:13.486Z,3.50
2019-04-14T05:57:43.706Z,4.00
2019-04-14T06:00:15.114Z,4.20
2019-04-14T06:02:44.829Z,4.00
2019-04-14T06:05:13.055Z,4.00
2019-04-14T06:07:42.304Z,3.90
2019-04-14T06:10:10.229Z,4.20
2019-04-14T06:12:38.052Z,4.30
2019-04-14T06:15:06.704Z,4.40
2019-04-14T06:17:34.571Z,4.80
2019-04-14T06:20:02.528Z,5.10
2019-04-14T06:22:30.535Z,5.00
2019-04-14T06:24:58.383Z,5.40
2019-04-14T06:27:26.401Z,5.60
2019-04-14T06:29:58.563Z,5.40
2019-04-14T06:32:51.938Z,5.90
2019-04-14T06:35:51.217Z,5.60
2019-04-14T06:38:25.833Z,6.10
2019-04-14T06:41:05.734Z,5.90
2019-04-14T06:43:33.742Z,6.30
2019-04-14T06:46:01.564Z,6.60
2019-04-14T06:48:29.556Z,6.60
2019-04-14T06:50:57.381Z,6.80
2019-04-14T06:53:25.468Z,6.70
2019-04-14T06:55:55.073Z,6.90
2019-04-14T06:58:23.018Z,6.80
2019-04-14T07:00:51.086Z,7.00
2019-04-14T07:03:19.107Z,7.30
2019-04-14T07:05:46.921Z,7.20
2019-04-14T07:08:14.889Z,7.40
2019-04-14T07:10:42.748Z,7.40
2019-04-14T07:13:13.959Z,7.60
2019-04-14T07:15:42.305Z,7.50
2019-04-14T07:18:12.086Z,7.90
2019-04-14T07:20:39.914Z,7.70
2019-04-14T07:23:07.876Z,8.10
2019-04-14T07:25:35.694Z,8.20
2019-04-14T07:28:05.659Z,8.20
2019-04-14T07:30:50.718Z,8.50
2019-04-14T07:33:31.769Z,8.60
2019-04-14T07:36:19.488Z,9.10
2019-04-14T07:38:56.069Z,9.20
2019-04-14T07:41:32.043Z,9.20
2019-04-14T07:44:25.655Z,9.60
2019-04-14T07:47:16.182Z,9.00
2019-04-14T07:49:53.588Z,9.20
2019-04-14T07:52:34.833Z,9.00
2019-04-14T07:55:15.861Z,9.00
2019-04-14T07:58:18.261Z,9.10
2019-04-14T08:00:54.145Z,9.20
2019-04-14T08:03:28.948Z,8.80
2019-04-14T08:05:56.763Z,9.20
2019-04-14T08:08:24.593Z,9.10
2019-04-14T08:10:52.552Z,9.10
2019-04-14T08:13:20.483Z,9.10
2019-04-14T08:15:48.418Z,9.20
2019-04-14T08:18:16.382Z,9.10
2019-04-14T08:20:44.193Z,9.30
2019-04-14T08:23:12.219Z,9.70
2019-04-14T08:25:40.046Z,9.70
2019-04-14T08:28:08.013Z,10.00
2019-04-14T08:30:36.039Z,9.90
2019-04-14T08:33:04.215Z,9.90
2019-04-14T08:35:32.063Z,10.30
2019-04-14T08:37:59.881Z,10.40
2019-04-14T08:40:27.927Z,10.70
2019-04-14T08:43:21.180Z,10.50
2019-04-14T08:45:54.780Z,11.00
2019-04-14T08:48:33.857Z,10.80
2019-04-14T08:51:15.608Z,11.40
2019-04-14T08:53:50.477Z,11.40
2019-04-14T08:56:35.501Z,11.50
2019-04-14T08:59:31.976Z,10.90
2019-04-14T09:02:18.003Z,11.00
2019-04-14T09:05:20.671Z,11.40
2019-04-14T09:08:02.000Z,11.30
2019-04-14T09:10:33.289Z,11.30
2019-04-14T09:13:01.140Z,11.50
2019-04-14T09:15:29.346Z,10.80
2019-04-14T09:17:57.417Z,11.50
2019-04-14T09:20:25.391Z,11.40
2019-04-14T09:22:53.233Z,11.50
2019-04-14T09:25:21.263Z,11.40
2019-04-14T09:27:49.083Z,11.50
2019-04-14T09:30:17.482Z,11.70
2019-04-14T09:32:45.467Z,11.30
2019-04-14T09:35:13.293Z,11.40
2019-04-14T09:37:41.114Z,11.50
2019-04-14T09:40:09.074Z,12.00
2019-04-14T09:42:37.162Z,12.10
2019-04-14T09:45:05.662Z,12.40
2019-04-14T09:47:33.604Z,12.50
2019-04-14T09:50:01.697Z,12.50
2019-04-14T09:52:29.605Z,12.50
2019-04-14T09:54:57.427Z,12.30
2019-04-14T09:57:25.455Z,11.90
2019-04-14T09:59:53.274Z,12.20
2019-04-14T10:02:22.842Z,12.00
2019-04-14T10:04:50.818Z,12.40
2019-04-14T10:07:18.676Z,12.40
2019-04-14T10:09:47.724Z,12.70
2019-04-14T10:12:15.705Z,13.30
2019-04-14T10:14:43.556Z,14.10
2019-04-14T10:17:11.443Z,13.90
2019-04-14T10:19:39.426Z,13.90
2019-04-14T10:22:07.403Z,14.60
2019-04-14T10:24:35.319Z,14.40
2019-04-14T10:27:03.219Z,14.40
2019-04-14T10:29:31.215Z,15.20
2019-04-14T10:31:59.044Z,14.90
2019-04-14T10:34:26.872Z,15.20
2019-04-14T10:36:54.884Z,15.20
2019-04-14T10:39:22.716Z,14.90
2019-04-14T10:41:50.570Z,15.20
2019-04-14T10:44:18.653Z,15.50
2019-04-14T10:46:46.893Z,15.40
2019-04-14T10:49:14.815Z,15.40
2019-04-14T10:51:42.781Z,15.40
2019-04-14T10:54:10.848Z,15.90
2019-04-14T10:56:38.699Z,15.70
2019-04-14T10:59:06.626Z,16.10
2019-04-14T11:01:34.569Z,16.20
2019-04-14T11:04:02.600Z,16.30
2019-04-14T11:06:57.277Z,16.20
2019-04-14T11:09:25.349Z,16.20
2019-04-14T11:11:53.374Z,15.80
2019-04-14T11:14:21.213Z,15.60
2019-04-14T11:16:49.048Z,15.70
2019-04-14T11:19:16.974Z,15.80
2019-04-14T11:21:44.811Z,15.50
2019-04-14T11:24:12.659Z,16.10
2019-04-14T11:26:40.731Z,16.10
2019-04-14T11:29:08.545Z,16.30
2019-04-14T11:31:53.032Z,16.70
2019-04-14T11:34:24.510Z,16.20
2019-04-14T11:37:17.429Z,16.10
2019-04-14T11:39:45.465Z,16.60
2019-04-14T11:42:13.328Z,16.30
2019-04-14T11:44:41.274Z,16.50
2019-04-14T11:47:09.231Z,16.30
2019-04-14T11:49:37.067Z,16.70
2019-04-14T11:52:04.976Z,16.70
2019-04-14T11:54:32.849Z,16.70
2019-04-14T11:57:00.718Z,17.00
2019-04-14T11:59:37.454Z,16.80
2019-04-14T12:02:19.478Z,16.80
2019-04-14T12:04:53.068Z,17.40
2019-04-14T12:07:40.516Z,17.20
2019-04-14T12:10:11.512Z,17.40
2019-04-14T12:12:39.499Z,17.50
2019-04-14T12:15:07.765Z,17.60
2019-04-14T12:17:35.883Z,17.40
2019-04-14T12:20:05.981Z,17.70
2019-04-14T12:22:34.065Z,17.60
2019-04-14T12:25:02.075Z,17.50
2019-04-14T12:27:29.886Z,17.90
2019-04-14T12:29:58.914Z,18.20
2019-04-14T12:32:29.240Z,18.50
2019-04-14T12:34:57.153Z,18.80
2019-04-14T12:37:25.163Z,18.70
2019-04-14T12:39:53.154Z,18.10
2019-04-14T12:42:49.612Z,18.20
2019-04-14T12:45:37.323Z,18.20
2019-04-14T12:48:23.558Z,18.30
2019-04-14T12:51:14.088Z,18.20
2019-04-14T12:53:42.176Z,18.70
2019-04-14T12:56:10.439Z,18.20
2019-04-14T12:59:03.686Z,18.70
2019-04-14T13:01:36.777Z,18.20
2019-04-14T13:04:04.854Z,18.70
2019-04-14T13:06:32.681Z,18.20
2019-04-14T13:09:00.802Z,18.20
2019-04-14T13:11:28.631Z,18.60
2019-04-14T13:13:56.622Z,18.70
2019-04-14T13:16:24.726Z,18.60
2019-04-14T13:18:52.699Z,18.20
2019-04-14T13:21:20.694Z,18.30
2019-04-14T13:23:48.519Z,18.70
2019-04-14T13:26:16.416Z,18.80
2019-04-14T13:28:44.401Z,18.80
2019-04-14T13:31:12.367Z,18.00
2019-04-14T13:33:40.264Z,18.30
2019-04-14T13:36:08.414Z,18.70
2019-04-14T13:38:36.387Z,18.00
2019-04-14T13:41:04.992Z,18.30
2019-04-14T13:43:32.951Z,18.20
2019-04-14T13:46:00.775Z,18.70
2019-04-14T13:48:30.407Z,18.80
2019-04-14T13:50:58.418Z,18.80
2019-04-14T13:53:26.481Z,18.90
2019-04-14T13:55:54.542Z,19.00
2019-04-14T13:58:22.641Z,18.70
2019-04-14T14:00:50.854Z,18.80
2019-04-14T14:03:18.769Z,19.00
2019-04-14T14:05:46.627Z,18.70
2019-04-14T14:08:14.639Z,18.90
2019-04-14T14:10:42.569Z,18.90
2019-04-14T14:13:28.791Z,19.00
2019-04-14T14:16:16.360Z,18.80
2019-04-14T14:18:52.986Z,19.00
2019-04-14T14:21:46.839Z,18.90
2019-04-14T14:27:10.281Z,18.90
2019-04-14T14:29:38.310Z,18.90
2019-04-14T14:32:11.388Z,19.00
2019-04-14T14:34:39.253Z,19.00
2019-04-14T14:37:07.232Z,19.50
2019-04-14T14:39:35.523Z,19.40
2019-04-14T14:42:03.919Z,18.90
2019-04-14T14:44:36.704Z,19.00
2019-04-14T14:47:17.055Z,19.00
2019-04-14T14:50:14.911Z,18.80
2019-04-14T14:52:54.426Z,18.70
2019-04-14T14:55:24.368Z,18.90
2019-04-14T14:57:52.389Z,18.90
2019-04-14T15:00:37.864Z,18.90
2019-04-14T15:03:09.109Z,18.90
2019-04-14T15:05:39.014Z,19.00
2019-04-14T15:08:08.697Z,18.90
2019-04-14T15:10:43.687Z,18.80
2019-04-14T15:13:12.143Z,19.00
2019-04-14T15:15:40.113Z,18.90
2019-04-14T15:18:08.501Z,19.10
2019-04-14T15:20:36.781Z,18.80
2019-04-14T15:23:06.951Z,18.80
2019-04-14T15:25:35.212Z,18.90
2019-04-14T15:28:03.290Z,18.70
2019-04-14T15:30:31.637Z,18.90
2019-04-14T15:33:02.364Z,18.30
2019-04-14T15:35:33.442Z,18.80
2019-04-14T15:38:04.493Z,18.30
2019-04-14T15:40:34.252Z,18.00
2019-04-14T15:43:02.621Z,18.20
2019-04-14T15:45:31.930Z,18.00
2019-04-14T15:48:05.485Z,18.30
2019-04-14T15:50:36.674Z,18.10
2019-04-14T15:53:04.621Z,18.00
2019-04-14T15:55:36.113Z,17.70
2019-04-14T15:58:22.720Z,17.70
2019-04-14T16:01:09.283Z,17.30
2019-04-14T16:03:47.719Z,17.30
2019-04-14T16:06:51.313Z,17.60
2019-04-14T16:09:34.324Z,17.40
2019-04-14T16:12:39.892Z,17.10
2019-04-14T16:15:26.745Z,17.00
2019-04-14T16:18:00.818Z,16.70
2019-04-14T16:20:33.537Z,17.00
2019-04-14T16:23:04.726Z,17.00
2019-04-14T16:25:40.946Z,16.30
2019-04-14T16:28:19.569Z,16.70
2019-04-14T16:31:10.400Z,16.90
2019-04-14T16:33:56.811Z,16.70
2019-04-14T16:36:24.875Z,16.80
2019-04-14T16:38:52.811Z,16.50
2019-04-14T16:41:20.883Z,16.50
2019-04-14T16:43:50.322Z,16.30
2019-04-14T16:46:18.157Z,16.30
2019-04-14T16:48:53.261Z,16.30
2019-04-14T16:51:29.160Z,16.20
2019-04-14T16:54:03.213Z,16.00
2019-04-14T16:56:47.004Z,15.80
2019-04-14T16:59:16.255Z,15.80
2019-04-14T17:01:50.066Z,15.80
2019-04-14T17:04:26.174Z,15.80
2019-04-14T17:06:57.341Z,15.80
2019-04-14T17:09:25.299Z,15.50
2019-04-14T17:11:53.261Z,15.70
2019-04-14T17:14:41.074Z,15.60
2019-04-14T17:17:28.478Z,15.10
2019-04-14T17:20:14.506Z,15.20
2019-04-14T17:23:00.755Z,14.90
2019-04-14T17:25:35.533Z,14.80
2019-04-14T17:28:14.627Z,14.70
2019-04-14T17:30:50.410Z,14.50
2019-04-14T17:33:30.907Z,14.60
2019-04-14T17:36:28.137Z,14.70
2019-04-14T17:39:21.614Z,14.60
2019-04-14T17:42:02.025Z,14.00
2019-04-14T17:44:49.473Z,14.10
2019-04-14T17:47:35.999Z,14.20
2019-04-14T17:50:40.897Z,13.80
2019-04-14T17:53:28.953Z,13.70
2019-04-14T17:56:15.247Z,13.50
2019-04-14T17:58:50.538Z,13.10
2019-04-14T18:01:42.643Z,13.00
2019-04-14T18:04:30.241Z,13.00
2019-04-14T18:07:02.396Z,12.90
2019-04-14T18:09:42.817Z,12.90
2019-04-14T18:12:25.679Z,12.60
2019-04-14T18:15:11.894Z,12.50
2019-04-14T18:18:06.952Z,12.40
2019-04-14T18:20:39.295Z,12.20
2019-04-14T18:23:07.277Z,12.00
2019-04-14T18:25:35.395Z,12.10
2019-04-14T18:28:35.020Z,12.10
2019-04-14T18:31:20.898Z,12.00
2019-04-14T18:34:08.337Z,12.00
2019-04-14T18:36:40.862Z,11.40
2019-04-14T18:39:38.013Z,11.40
2019-04-14T18:42:18.059Z,11.60
2019-04-14T18:45:05.888Z,11.50
2019-04-14T18:47:53.102Z,11.50
2019-04-14T18:50:39.585Z,10.90
2019-04-14T18:53:20.948Z,11.20
2019-04-14T18:55:52.720Z,11.10
2019-04-14T18:58:39.240Z,10.50
2019-04-14T19:01:18.949Z,10.60
2019-04-14T19:03:47.232Z,10.40
2019-04-14T19:06:19.205Z,10.40
2019-04-14T19:08:48.849Z,10.60
2019-04-14T19:11:57.019Z,10.00
2019-04-14T19:14:33.760Z,10.00
2019-04-14T19:17:09.232Z,10.20
2019-04-14T19:19:38.700Z,10.00
2019-04-14T19:22:06.998Z,9.70
2019-04-14T19:24:35.233Z,9.70
2019-04-14T19:27:03.174Z,9.70
2019-04-14T19:29:32.149Z,9.70
2019-04-14T19:32:00.128Z,9.30
2019-04-14T19:34:28.309Z,9.20
2019-04-14T19:36:56.288Z,9.20
2019-04-14T19:39:24.360Z,9.30
2019-04-14T19:41:52.207Z,8.70
2019-04-14T19:44:20.037Z,8.90
2019-04-14T19:46:48.203Z,8.90
2019-04-14T19:49:16.147Z,8.80
2019-04-14T19:51:43.972Z,8.80
2019-04-14T19:54:12.236Z,8.90
2019-04-14T19:56:40.616Z,8.90
2019-04-14T19:59:08.435Z,8.90
2019-04-14T20:01:36.684Z,8.50
2019-04-14T20:04:04.560Z,8.30
2019-04-14T20:06:32.596Z,8.40
2019-04-14T20:09:00.573Z,8.20
2019-04-14T20:11:28.528Z,8.20
2019-04-14T20:13:56.734Z,8.50
2019-04-14T20:16:33.666Z,8.30
2019-04-14T20:19:15.992Z,8.20
2019-04-14T20:22:02.272Z,8.10
2019-04-14T20:24:34.991Z,8.00
2019-04-14T20:27:18.082Z,8.10
2019-04-14T20:29:49.252Z,8.10
2019-04-14T20:32:23.193Z,7.80
2019-04-14T20:34:51.026Z,7.80
2019-04-14T20:37:19.283Z,7.80
2019-04-14T20:39:47.240Z,7.80
2019-04-14T20:42:15.347Z,7.60
2019-04-14T20:44:43.420Z,7.70
2019-04-14T20:47:11.552Z,7.70
2019-04-14T20:49:39.614Z,7.50
2019-04-14T20:52:09.552Z,7.30
2019-04-14T20:54:37.554Z,7.30
2019-04-14T20:57:09.713Z,7.10
2019-04-14T20:59:37.540Z,7.20
2019-04-14T21:02:21.011Z,7.10
2019-04-14T21:04:56.482Z,7.00
2019-04-14T21:07:44.297Z,7.20
2019-04-14T21:10:55.764Z,7.00
2019-04-14T21:13:31.455Z,7.20
2019-04-14T21:16:12.452Z,6.80
2019-04-14T21:18:47.039Z,7.30
2019-04-14T21:21:46.598Z,6.70
2019-04-14T21:24:30.452Z,6.80
2019-04-14T21:27:24.307Z,6.90
2019-04-14T21:30:00.374Z,6.70
2019-04-14T21:32:32.529Z,6.70
2019-04-14T21:35:19.918Z,6.70
2019-04-14T21:38:07.435Z,6.70
2019-04-14T21:40:50.399Z,6.80
2019-04-14T21:43:18.338Z,6.70
2019-04-14T21:45:46.274Z,7.00
2019-04-14T21:48:14.209Z,7.00
2019-04-14T21:50:43.363Z,6.70
2019-04-14T21:53:11.201Z,6.70
2019-04-14T21:55:39.165Z,7.00
2019-04-14T21:58:18.906Z,6.70
2019-04-14T22:01:53.881Z,6.70
2019-04-14T22:04:45.078Z,6.80
2019-04-14T22:07:32.521Z,6.70
2019-04-14T22:10:19.121Z,6.70
2019-04-14T22:12:47.706Z,6.70
2019-04-14T22:15:15.523Z,6.70
2019-04-14T22:17:43.545Z,6.70
2019-04-14T22:20:11.664Z,6.70
2019-04-14T22:22:39.677Z,6.90
2019-04-14T22:25:07.525Z,6.70
2019-04-14T22:27:35.330Z,6.80
2019-04-14T22:30:05.062Z,6.70
2019-04-14T22:32:32.867Z,6.60
2019-04-14T22:35:00.689Z,7.00
2019-04-14T22:37:28.638Z,6.60
2019-04-14T22:39:56.468Z,6.30
2019-04-14T22:42:24.559Z,6.40
2019-04-14T22:44:52.613Z,6.60
2019-04-14T22:47:21.055Z,6.30
2019-04-14T22:49:48.877Z,6.00
2019-04-14T22:52:16.819Z,5.70
2019-04-14T22:54:44.720Z,5.90
2019-04-14T22:57:12.559Z,5.90
2019-04-14T22:59:40.631Z,6.30
2019-04-14T23:02:24.854Z,6.50
2019-04-14T23:05:14.220Z,6.40
2019-04-14T23:07:57.677Z,6.30
2019-04-14T23:10:44.146Z,6.30
2019-04-14T23:13:27.778Z,6.50
2019-04-14T23:15:59.777Z,6.50
2019-04-14T23:18:53.397Z,6.40
2019-04-14T23:21:39.682Z,6.60
2019-04-14T23:24:26.084Z,6.60
2019-04-14T23:26:53.973Z,6.30
2019-04-14T23:29:21.925Z,6.60
2019-04-14T23:31:49.944Z,6.40
2019-04-14T23:34:18.036Z,6.60
2019-04-14T23:36:46.053Z,6.70
2019-04-14T23:39:15.072Z,6.40
2019-04-14T23:41:42.907Z,6.50
2019-04-14T23:44:12.738Z,6.90
2019-04-14T23:46:40.816Z,6.60
2019-04-14T23:49:08.943Z,6.40
2019-04-14T23:51:36.974Z,6.20
2019-04-14T23:54:04.814Z,6.40
2019-04-14T23:56:32.809Z,6.50
2019-04-14T23:59:00.757Z,6.20
